sensor_id;sensor_type;location;lat;lon;timestamp;P1;durP1;ratioP1;P2;durP2;ratioP2
61291;SDS011;47165;42.664;23.368;2023-05-23T00:00:40;6.40;;;4.25;;
61291;SDS011;47165;42.664;23.368;2023-05-23T00:03:06;4.57;;;2.78;;
61291;SDS011;47165;42.664;23.368;2023-05-23T00:05:32;5.75;;;2.92;;
61291;SDS011;47165;42.664;23.368;2023-05-23T00:07:59;3.63;;;2.53;;
61291;SDS011;47165;42.664;23.368;2023-05-23T00:10:25;5.22;;;3.03;;
61291;SDS011;47165;42.664;23.368;2023-05-23T00:12:50;6.40;;;3.25;;
61291;SDS011;47165;42.664;23.368;2023-05-23T00:15:16;4.97;;;2.97;;
61291;SDS011;47165;42.664;23.368;2023-05-23T00:17:42;9.77;;;4.20;;
61291;SDS011;47165;42.664;23.368;2023-05-23T00:20:08;6.22;;;3.40;;
61291;SDS011;47165;42.664;23.368;2023-05-23T00:22:35;6.97;;;3.53;;
61291;SDS011;47165;42.664;23.368;2023-05-23T00:25:04;13.52;;;6.78;;
61291;SDS011;47165;42.664;23.368;2023-05-23T00:27:30;4.10;;;2.60;;
61291;SDS011;47165;42.664;23.368;2023-05-23T00:29:55;3.60;;;2.28;;
61291;SDS011;47165;42.664;23.368;2023-05-23T00:32:21;4.22;;;1.83;;
61291;SDS011;47165;42.664;23.368;2023-05-23T00:34:46;18.65;;;9.43;;
61291;SDS011;47165;42.664;23.368;2023-05-23T00:37:12;14.15;;;6.95;;
61291;SDS011;47165;42.664;23.368;2023-05-23T00:39:38;23.95;;;9.10;;
61291;SDS011;47165;42.664;23.368;2023-05-23T00:42:03;22.08;;;9.82;;
61291;SDS011;47165;42.664;23.368;2023-05-23T00:44:30;22.70;;;9.55;;
61291;SDS011;47165;42.664;23.368;2023-05-23T00:46:55;11.85;;;5.78;;
61291;SDS011;47165;42.664;23.368;2023-05-23T00:49:22;13.55;;;6.03;;
61291;SDS011;47165;42.664;23.368;2023-05-23T00:51:48;17.88;;;6.68;;
61291;SDS011;47165;42.664;23.368;2023-05-23T00:54:25;11.88;;;6.47;;
61291;SDS011;47165;42.664;23.368;2023-05-23T00:56:53;8.43;;;4.80;;
61291;SDS011;47165;42.664;23.368;2023-05-23T00:59:19;10.10;;;5.15;;
61291;SDS011;47165;42.664;23.368;2023-05-23T01:01:47;7.80;;;3.88;;
61291;SDS011;47165;42.664;23.368;2023-05-23T01:04:14;11.70;;;5.72;;
61291;SDS011;47165;42.664;23.368;2023-05-23T01:06:40;8.25;;;4.38;;
61291;SDS011;47165;42.664;23.368;2023-05-23T01:09:11;3.45;;;2.35;;
61291;SDS011;47165;42.664;23.368;2023-05-23T01:11:49;5.25;;;3.13;;
61291;SDS011;47165;42.664;23.368;2023-05-23T01:14:24;4.05;;;2.47;;
61291;SDS011;47165;42.664;23.368;2023-05-23T01:16:57;3.58;;;2.80;;
61291;SDS011;47165;42.664;23.368;2023-05-23T01:21:55;7.70;;;2.95;;
61291;SDS011;47165;42.664;23.368;2023-05-23T01:24:33;5.40;;;2.75;;
61291;SDS011;47165;42.664;23.368;2023-05-23T01:29:34;4.78;;;2.83;;
61291;SDS011;47165;42.664;23.368;2023-05-23T01:32:12;5.25;;;2.30;;
61291;SDS011;47165;42.664;23.368;2023-05-23T01:34:40;4.55;;;2.17;;
61291;SDS011;47165;42.664;23.368;2023-05-23T01:37:07;4.75;;;2.20;;
61291;SDS011;47165;42.664;23.368;2023-05-23T01:39:34;2.72;;;1.75;;
61291;SDS011;47165;42.664;23.368;2023-05-23T01:42:00;4.32;;;2.20;;
61291;SDS011;47165;42.664;23.368;2023-05-23T01:44:25;4.60;;;3.33;;
61291;SDS011;47165;42.664;23.368;2023-05-23T01:46:51;4.05;;;2.03;;
61291;SDS011;47165;42.664;23.368;2023-05-23T01:49:16;4.93;;;2.53;;
61291;SDS011;47165;42.664;23.368;2023-05-23T01:51:42;6.25;;;2.42;;
61291;SDS011;47165;42.664;23.368;2023-05-23T01:54:08;3.25;;;1.85;;
61291;SDS011;47165;42.664;23.368;2023-05-23T01:56:33;4.70;;;2.08;;
61291;SDS011;47165;42.664;23.368;2023-05-23T01:58:59;8.32;;;2.25;;
61291;SDS011;47165;42.664;23.368;2023-05-23T02:01:26;3.80;;;2.25;;
61291;SDS011;47165;42.664;23.368;2023-05-23T02:03:51;1.60;;;1.25;;
61291;SDS011;47165;42.664;23.368;2023-05-23T02:06:17;2.60;;;1.95;;
61291;SDS011;47165;42.664;23.368;2023-05-23T02:08:42;3.00;;;1.90;;
61291;SDS011;47165;42.664;23.368;2023-05-23T02:11:07;3.42;;;1.77;;
61291;SDS011;47165;42.664;23.368;2023-05-23T02:13:34;3.55;;;2.13;;
61291;SDS011;47165;42.664;23.368;2023-05-23T02:16:00;4.00;;;1.73;;
61291;SDS011;47165;42.664;23.368;2023-05-23T02:18:25;3.72;;;1.60;;
61291;SDS011;47165;42.664;23.368;2023-05-23T02:20:53;2.95;;;1.70;;
61291;SDS011;47165;42.664;23.368;2023-05-23T02:23:20;3.10;;;1.60;;
61291;SDS011;47165;42.664;23.368;2023-05-23T02:25:45;2.85;;;1.50;;
61291;SDS011;47165;42.664;23.368;2023-05-23T02:28:11;4.22;;;1.88;;
61291;SDS011;47165;42.664;23.368;2023-05-23T02:30:36;3.30;;;1.77;;
61291;SDS011;47165;42.664;23.368;2023-05-23T02:33:05;2.90;;;1.35;;
61291;SDS011;47165;42.664;23.368;2023-05-23T02:35:31;2.45;;;1.25;;
61291;SDS011;47165;42.664;23.368;2023-05-23T02:37:57;1.50;;;1.38;;
61291;SDS011;47165;42.664;23.368;2023-05-23T02:40:23;3.42;;;2.17;;
61291;SDS011;47165;42.664;23.368;2023-05-23T02:42:48;2.67;;;1.95;;
61291;SDS011;47165;42.664;23.368;2023-05-23T02:45:15;1.90;;;1.40;;
61291;SDS011;47165;42.664;23.368;2023-05-23T02:47:41;6.10;;;2.08;;
61291;SDS011;47165;42.664;23.368;2023-05-23T02:50:07;4.70;;;2.90;;
61291;SDS011;47165;42.664;23.368;2023-05-23T02:52:33;3.70;;;1.90;;
61291;SDS011;47165;42.664;23.368;2023-05-23T02:54:58;4.40;;;1.80;;
61291;SDS011;47165;42.664;23.368;2023-05-23T02:57:24;3.10;;;1.92;;
61291;SDS011;47165;42.664;23.368;2023-05-23T02:59:49;2.53;;;1.55;;
61291;SDS011;47165;42.664;23.368;2023-05-23T03:02:15;3.35;;;1.90;;
61291;SDS011;47165;42.664;23.368;2023-05-23T03:04:40;4.57;;;1.60;;
61291;SDS011;47165;42.664;23.368;2023-05-23T03:07:06;5.00;;;1.98;;
61291;SDS011;47165;42.664;23.368;2023-05-23T03:09:32;4.63;;;2.78;;
61291;SDS011;47165;42.664;23.368;2023-05-23T03:11:57;3.15;;;1.77;;
61291;SDS011;47165;42.664;23.368;2023-05-23T03:14:22;3.03;;;1.60;;
61291;SDS011;47165;42.664;23.368;2023-05-23T03:16:48;1.98;;;1.48;;
61291;SDS011;47165;42.664;23.368;2023-05-23T03:19:13;4.00;;;1.38;;
61291;SDS011;47165;42.664;23.368;2023-05-23T03:21:39;2.00;;;1.50;;
61291;SDS011;47165;42.664;23.368;2023-05-23T03:24:04;3.60;;;1.60;;
61291;SDS011;47165;42.664;23.368;2023-05-23T03:26:30;3.80;;;1.65;;
61291;SDS011;47165;42.664;23.368;2023-05-23T03:28:56;3.78;;;1.40;;
61291;SDS011;47165;42.664;23.368;2023-05-23T03:31:21;2.65;;;1.60;;
61291;SDS011;47165;42.664;23.368;2023-05-23T03:33:47;2.78;;;1.77;;
61291;SDS011;47165;42.664;23.368;2023-05-23T03:36:12;3.45;;;1.80;;
61291;SDS011;47165;42.664;23.368;2023-05-23T03:38:38;1.50;;;1.20;;
61291;SDS011;47165;42.664;23.368;2023-05-23T03:41:03;4.28;;;2.03;;
61291;SDS011;47165;42.664;23.368;2023-05-23T03:43:29;3.00;;;1.52;;
61291;SDS011;47165;42.664;23.368;2023-05-23T03:45:54;3.30;;;1.92;;
61291;SDS011;47165;42.664;23.368;2023-05-23T03:48:19;2.80;;;2.05;;
61291;SDS011;47165;42.664;23.368;2023-05-23T03:50:45;2.63;;;1.52;;
61291;SDS011;47165;42.664;23.368;2023-05-23T03:53:10;2.88;;;1.92;;
61291;SDS011;47165;42.664;23.368;2023-05-23T03:55:37;3.35;;;1.25;;
61291;SDS011;47165;42.664;23.368;2023-05-23T03:58:03;3.72;;;1.40;;
61291;SDS011;47165;42.664;23.368;2023-05-23T04:00:28;1.90;;;1.30;;
61291;SDS011;47165;42.664;23.368;2023-05-23T04:02:54;1.60;;;1.25;;
61291;SDS011;47165;42.664;23.368;2023-05-23T04:05:19;2.63;;;1.40;;
61291;SDS011;47165;42.664;23.368;2023-05-23T04:07:45;2.90;;;1.42;;
61291;SDS011;47165;42.664;23.368;2023-05-23T04:10:11;6.80;;;3.97;;
61291;SDS011;47165;42.664;23.368;2023-05-23T04:12:36;7.28;;;4.78;;
61291;SDS011;47165;42.664;23.368;2023-05-23T04:15:05;4.25;;;3.10;;
61291;SDS011;47165;42.664;23.368;2023-05-23T04:17:31;2.30;;;1.70;;
61291;SDS011;47165;42.664;23.368;2023-05-23T04:19:57;3.20;;;1.50;;
61291;SDS011;47165;42.664;23.368;2023-05-23T04:22:23;2.33;;;1.75;;
61291;SDS011;47165;42.664;23.368;2023-05-23T04:24:48;2.38;;;1.38;;
61291;SDS011;47165;42.664;23.368;2023-05-23T04:27:13;2.20;;;1.35;;
61291;SDS011;47165;42.664;23.368;2023-05-23T04:29:39;3.28;;;1.58;;
61291;SDS011;47165;42.664;23.368;2023-05-23T04:32:05;2.63;;;1.45;;
61291;SDS011;47165;42.664;23.368;2023-05-23T04:34:31;7.20;;;2.20;;
61291;SDS011;47165;42.664;23.368;2023-05-23T04:37:00;2.58;;;1.48;;
61291;SDS011;47165;42.664;23.368;2023-05-23T04:39:29;2.90;;;2.17;;
61291;SDS011;47165;42.664;23.368;2023-05-23T04:41:54;3.35;;;2.15;;
61291;SDS011;47165;42.664;23.368;2023-05-23T04:44:21;3.38;;;2.10;;
61291;SDS011;47165;42.664;23.368;2023-05-23T04:46:46;4.78;;;1.90;;
61291;SDS011;47165;42.664;23.368;2023-05-23T04:49:12;3.20;;;2.15;;
61291;SDS011;47165;42.664;23.368;2023-05-23T04:51:38;3.25;;;1.85;;
61291;SDS011;47165;42.664;23.368;2023-05-23T04:54:03;4.38;;;2.20;;
61291;SDS011;47165;42.664;23.368;2023-05-23T04:56:29;3.95;;;2.53;;
61291;SDS011;47165;42.664;23.368;2023-05-23T04:58:55;7.43;;;3.03;;
61291;SDS011;47165;42.664;23.368;2023-05-23T05:01:21;10.40;;;4.40;;
61291;SDS011;47165;42.664;23.368;2023-05-23T05:03:50;8.20;;;4.00;;
61291;SDS011;47165;42.664;23.368;2023-05-23T05:06:16;6.22;;;3.78;;
61291;SDS011;47165;42.664;23.368;2023-05-23T05:08:42;5.25;;;3.15;;
61291;SDS011;47165;42.664;23.368;2023-05-23T05:11:08;7.57;;;3.50;;
61291;SDS011;47165;42.664;23.368;2023-05-23T05:13:34;8.45;;;3.38;;
61291;SDS011;47165;42.664;23.368;2023-05-23T05:16:00;13.60;;;4.85;;
61291;SDS011;47165;42.664;23.368;2023-05-23T05:18:25;6.97;;;3.53;;
61291;SDS011;47165;42.664;23.368;2023-05-23T05:20:51;7.10;;;3.72;;
61291;SDS011;47165;42.664;23.368;2023-05-23T05:23:16;7.85;;;3.63;;
61291;SDS011;47165;42.664;23.368;2023-05-23T05:25:42;6.93;;;3.72;;
61291;SDS011;47165;42.664;23.368;2023-05-23T05:28:07;4.60;;;3.05;;
61291;SDS011;47165;42.664;23.368;2023-05-23T05:30:33;11.23;;;4.80;;
61291;SDS011;47165;42.664;23.368;2023-05-23T05:33:02;11.05;;;4.50;;
61291;SDS011;47165;42.664;23.368;2023-05-23T05:35:32;9.57;;;4.40;;
61291;SDS011;47165;42.664;23.368;2023-05-23T05:37:58;6.60;;;3.47;;
61291;SDS011;47165;42.664;23.368;2023-05-23T05:40:24;9.82;;;4.07;;
61291;SDS011;47165;42.664;23.368;2023-05-23T05:42:50;10.27;;;4.15;;
61291;SDS011;47165;42.664;23.368;2023-05-23T05:45:16;6.38;;;4.40;;
61291;SDS011;47165;42.664;23.368;2023-05-23T05:47:41;11.38;;;4.50;;
61291;SDS011;47165;42.664;23.368;2023-05-23T05:50:07;13.68;;;5.45;;
61291;SDS011;47165;42.664;23.368;2023-05-23T05:52:33;9.10;;;4.60;;
61291;SDS011;47165;42.664;23.368;2023-05-23T05:55:02;8.52;;;4.50;;
61291;SDS011;47165;42.664;23.368;2023-05-23T05:57:29;11.65;;;6.40;;
61291;SDS011;47165;42.664;23.368;2023-05-23T05:59:55;12.20;;;5.55;;
61291;SDS011;47165;42.664;23.368;2023-05-23T06:02:20;11.45;;;5.53;;
61291;SDS011;47165;42.664;23.368;2023-05-23T06:04:46;11.60;;;4.50;;
61291;SDS011;47165;42.664;23.368;2023-05-23T06:07:11;12.77;;;5.22;;
61291;SDS011;47165;42.664;23.368;2023-05-23T06:09:36;10.38;;;5.60;;
61291;SDS011;47165;42.664;23.368;2023-05-23T06:12:02;11.15;;;5.80;;
61291;SDS011;47165;42.664;23.368;2023-05-23T06:14:27;10.57;;;5.70;;
61291;SDS011;47165;42.664;23.368;2023-05-23T06:16:53;12.30;;;5.55;;
61291;SDS011;47165;42.664;23.368;2023-05-23T06:19:18;11.90;;;6.57;;
61291;SDS011;47165;42.664;23.368;2023-05-23T06:21:44;9.38;;;5.45;;
61291;SDS011;47165;42.664;23.368;2023-05-23T06:24:09;10.77;;;6.10;;
61291;SDS011;47165;42.664;23.368;2023-05-23T06:26:34;14.13;;;6.15;;
61291;SDS011;47165;42.664;23.368;2023-05-23T06:29:01;17.77;;;7.50;;
61291;SDS011;47165;42.664;23.368;2023-05-23T06:31:27;11.40;;;5.97;;
61291;SDS011;47165;42.664;23.368;2023-05-23T06:33:52;14.43;;;6.82;;
61291;SDS011;47165;42.664;23.368;2023-05-23T06:36:18;19.65;;;6.75;;
61291;SDS011;47165;42.664;23.368;2023-05-23T06:38:43;12.05;;;7.20;;
61291;SDS011;47165;42.664;23.368;2023-05-23T06:41:09;10.63;;;5.40;;
61291;SDS011;47165;42.664;23.368;2023-05-23T06:43:34;17.17;;;8.00;;
61291;SDS011;47165;42.664;23.368;2023-05-23T06:46:00;9.93;;;4.72;;
61291;SDS011;47165;42.664;23.368;2023-05-23T06:48:25;16.75;;;7.60;;
61291;SDS011;47165;42.664;23.368;2023-05-23T06:50:51;11.77;;;5.50;;
61291;SDS011;47165;42.664;23.368;2023-05-23T06:53:16;15.20;;;6.40;;
61291;SDS011;47165;42.664;23.368;2023-05-23T06:55:42;15.07;;;6.78;;
61291;SDS011;47165;42.664;23.368;2023-05-23T06:58:08;12.90;;;7.32;;
61291;SDS011;47165;42.664;23.368;2023-05-23T07:00:33;13.43;;;6.35;;
61291;SDS011;47165;42.664;23.368;2023-05-23T07:02:58;13.50;;;6.25;;
61291;SDS011;47165;42.664;23.368;2023-05-23T07:05:27;9.73;;;5.38;;
61291;SDS011;47165;42.664;23.368;2023-05-23T07:07:52;12.52;;;5.95;;
61291;SDS011;47165;42.664;23.368;2023-05-23T07:10:18;14.82;;;7.57;;
61291;SDS011;47165;42.664;23.368;2023-05-23T07:12:44;12.68;;;6.60;;
61291;SDS011;47165;42.664;23.368;2023-05-23T07:15:10;12.23;;;6.28;;
61291;SDS011;47165;42.664;23.368;2023-05-23T07:17:37;14.52;;;7.25;;
61291;SDS011;47165;42.664;23.368;2023-05-23T07:20:03;9.65;;;5.60;;
61291;SDS011;47165;42.664;23.368;2023-05-23T07:29:11;16.93;;;7.80;;
61291;SDS011;47165;42.664;23.368;2023-05-23T07:31:37;14.90;;;7.75;;
61291;SDS011;47165;42.664;23.368;2023-05-23T07:34:02;15.75;;;8.30;;
61291;SDS011;47165;42.664;23.368;2023-05-23T07:36:28;12.88;;;6.85;;
61291;SDS011;47165;42.664;23.368;2023-05-23T07:38:57;12.73;;;7.80;;
61291;SDS011;47165;42.664;23.368;2023-05-23T07:41:23;18.35;;;7.45;;
61291;SDS011;47165;42.664;23.368;2023-05-23T07:43:49;14.13;;;8.13;;
61291;SDS011;47165;42.664;23.368;2023-05-23T07:46:15;12.38;;;6.50;;
61291;SDS011;47165;42.664;23.368;2023-05-23T07:48:40;12.05;;;6.50;;
61291;SDS011;47165;42.664;23.368;2023-05-23T07:51:06;14.90;;;7.90;;
61291;SDS011;47165;42.664;23.368;2023-05-23T07:53:31;15.15;;;9.00;;
61291;SDS011;47165;42.664;23.368;2023-05-23T07:55:56;23.20;;;9.85;;
61291;SDS011;47165;42.664;23.368;2023-05-23T07:58:22;18.75;;;9.93;;
61291;SDS011;47165;42.664;23.368;2023-05-23T08:00:47;18.88;;;9.10;;
61291;SDS011;47165;42.664;23.368;2023-05-23T08:03:13;11.95;;;5.97;;
61291;SDS011;47165;42.664;23.368;2023-05-23T08:05:38;10.15;;;6.63;;
61291;SDS011;47165;42.664;23.368;2023-05-23T08:08:03;10.13;;;6.43;;
61291;SDS011;47165;42.664;23.368;2023-05-23T08:10:29;11.75;;;6.28;;
61291;SDS011;47165;42.664;23.368;2023-05-23T08:12:54;9.30;;;5.82;;
61291;SDS011;47165;42.664;23.368;2023-05-23T08:15:20;12.05;;;6.82;;
61291;SDS011;47165;42.664;23.368;2023-05-23T08:17:47;9.30;;;4.55;;
61291;SDS011;47165;42.664;23.368;2023-05-23T08:20:13;14.80;;;9.43;;
61291;SDS011;47165;42.664;23.368;2023-05-23T08:22:38;10.40;;;6.18;;
61291;SDS011;47165;42.664;23.368;2023-05-23T08:25:04;9.23;;;5.32;;
61291;SDS011;47165;42.664;23.368;2023-05-23T08:27:30;12.93;;;6.80;;
61291;SDS011;47165;42.664;23.368;2023-05-23T08:29:55;10.90;;;5.90;;
61291;SDS011;47165;42.664;23.368;2023-05-23T08:32:21;12.82;;;6.75;;
61291;SDS011;47165;42.664;23.368;2023-05-23T08:34:47;13.93;;;6.38;;
61291;SDS011;47165;42.664;23.368;2023-05-23T08:37:13;12.35;;;5.85;;
61291;SDS011;47165;42.664;23.368;2023-05-23T08:39:38;10.90;;;6.68;;
61291;SDS011;47165;42.664;23.368;2023-05-23T08:42:04;11.20;;;4.95;;
61291;SDS011;47165;42.664;23.368;2023-05-23T08:44:30;9.20;;;5.40;;
61291;SDS011;47165;42.664;23.368;2023-05-23T08:46:55;8.07;;;4.90;;
61291;SDS011;47165;42.664;23.368;2023-05-23T08:49:26;19.92;;;8.20;;
61291;SDS011;47165;42.664;23.368;2023-05-23T08:51:51;12.45;;;6.90;;
61291;SDS011;47165;42.664;23.368;2023-05-23T08:54:22;12.40;;;7.15;;
61291;SDS011;47165;42.664;23.368;2023-05-23T08:56:48;9.80;;;5.22;;
61291;SDS011;47165;42.664;23.368;2023-05-23T08:59:16;12.13;;;7.80;;
61291;SDS011;47165;42.664;23.368;2023-05-23T09:01:43;15.85;;;6.72;;
61291;SDS011;47165;42.664;23.368;2023-05-23T09:04:10;12.18;;;6.65;;
61291;SDS011;47165;42.664;23.368;2023-05-23T09:06:36;10.43;;;6.13;;
61291;SDS011;47165;42.664;23.368;2023-05-23T09:09:01;7.80;;;4.90;;
61291;SDS011;47165;42.664;23.368;2023-05-23T09:11:28;11.50;;;6.82;;
61291;SDS011;47165;42.664;23.368;2023-05-23T09:13:53;14.73;;;6.18;;
61291;SDS011;47165;42.664;23.368;2023-05-23T09:16:20;5.63;;;3.60;;
61291;SDS011;47165;42.664;23.368;2023-05-23T09:18:45;6.47;;;4.05;;
61291;SDS011;47165;42.664;23.368;2023-05-23T09:21:12;7.45;;;4.65;;
61291;SDS011;47165;42.664;23.368;2023-05-23T09:23:39;7.63;;;4.07;;
61291;SDS011;47165;42.664;23.368;2023-05-23T09:26:09;7.63;;;3.90;;
61291;SDS011;47165;42.664;23.368;2023-05-23T09:28:37;7.55;;;3.78;;
61291;SDS011;47165;42.664;23.368;2023-05-23T09:31:04;8.32;;;4.10;;
61291;SDS011;47165;42.664;23.368;2023-05-23T09:33:48;4.88;;;3.42;;
61291;SDS011;47165;42.664;23.368;2023-05-23T09:36:14;8.52;;;2.90;;
61291;SDS011;47165;42.664;23.368;2023-05-23T09:38:41;6.40;;;3.65;;
61291;SDS011;47165;42.664;23.368;2023-05-23T09:41:08;5.70;;;3.08;;
61291;SDS011;47165;42.664;23.368;2023-05-23T09:43:38;5.47;;;2.95;;
61291;SDS011;47165;42.664;23.368;2023-05-23T09:46:11;4.22;;;2.85;;
61291;SDS011;47165;42.664;23.368;2023-05-23T09:48:37;5.57;;;3.38;;
61291;SDS011;47165;42.664;23.368;2023-05-23T09:51:03;5.07;;;3.00;;
61291;SDS011;47165;42.664;23.368;2023-05-23T09:53:30;7.30;;;3.47;;
61291;SDS011;47165;42.664;23.368;2023-05-23T09:55:55;4.85;;;3.17;;
61291;SDS011;47165;42.664;23.368;2023-05-23T09:58:23;3.88;;;2.92;;
61291;SDS011;47165;42.664;23.368;2023-05-23T10:00:51;10.50;;;2.85;;
61291;SDS011;47165;42.664;23.368;2023-05-23T10:03:18;6.47;;;3.90;;
61291;SDS011;47165;42.664;23.368;2023-05-23T10:05:49;5.15;;;3.28;;
61291;SDS011;47165;42.664;23.368;2023-05-23T10:13:25;23.45;;;10.98;;
61291;SDS011;47165;42.664;23.368;2023-05-23T10:15:58;38.63;;;19.83;;
61291;SDS011;47165;42.664;23.368;2023-05-23T10:18:31;24.83;;;11.60;;
61291;SDS011;47165;42.664;23.368;2023-05-23T10:21:03;7.00;;;3.85;;
61291;SDS011;47165;42.664;23.368;2023-05-23T10:23:33;5.82;;;3.05;;
61291;SDS011;47165;42.664;23.368;2023-05-23T10:26:01;16.38;;;8.27;;
61291;SDS011;47165;42.664;23.368;2023-05-23T10:28:29;25.10;;;12.27;;
61291;SDS011;47165;42.664;23.368;2023-05-23T10:30:55;40.63;;;17.98;;
61291;SDS011;47165;42.664;23.368;2023-05-23T10:33:21;15.27;;;5.68;;
61291;SDS011;47165;42.664;23.368;2023-05-23T10:38:45;6.25;;;3.67;;
61291;SDS011;47165;42.664;23.368;2023-05-23T10:43:54;13.73;;;4.43;;
61291;SDS011;47165;42.664;23.368;2023-05-23T10:46:52;64.38;;;30.95;;
61291;SDS011;47165;42.664;23.368;2023-05-23T10:52:07;13.35;;;7.80;;
61291;SDS011;47165;42.664;23.368;2023-05-23T10:54:35;18.40;;;9.07;;
61291;SDS011;47165;42.664;23.368;2023-05-23T10:57:08;16.77;;;7.90;;
61291;SDS011;47165;42.664;23.368;2023-05-23T10:59:35;10.68;;;5.40;;
61291;SDS011;47165;42.664;23.368;2023-05-23T11:02:02;8.10;;;4.65;;
61291;SDS011;47165;42.664;23.368;2023-05-23T11:04:31;26.38;;;13.63;;
61291;SDS011;47165;42.664;23.368;2023-05-23T11:06:57;50.75;;;25.52;;
61291;SDS011;47165;42.664;23.368;2023-05-23T11:09:22;59.65;;;29.08;;
61291;SDS011;47165;42.664;23.368;2023-05-23T11:11:52;18.75;;;9.52;;
61291;SDS011;47165;42.664;23.368;2023-05-23T11:14:18;27.13;;;12.50;;
61291;SDS011;47165;42.664;23.368;2023-05-23T11:16:44;26.65;;;12.18;;
61291;SDS011;47165;42.664;23.368;2023-05-23T11:19:19;16.58;;;9.40;;
61291;SDS011;47165;42.664;23.368;2023-05-23T11:21:53;55.73;;;27.37;;
61291;SDS011;47165;42.664;23.368;2023-05-23T11:24:21;38.45;;;19.52;;
61291;SDS011;47165;42.664;23.368;2023-05-23T11:26:57;15.00;;;8.32;;
61291;SDS011;47165;42.664;23.368;2023-05-23T11:29:26;24.70;;;11.88;;
61291;SDS011;47165;42.664;23.368;2023-05-23T11:31:53;5.45;;;3.28;;
61291;SDS011;47165;42.664;23.368;2023-05-23T11:34:19;6.30;;;3.30;;
61291;SDS011;47165;42.664;23.368;2023-05-23T11:36:45;5.95;;;3.70;;
61291;SDS011;47165;42.664;23.368;2023-05-23T11:39:11;4.45;;;2.95;;
61291;SDS011;47165;42.664;23.368;2023-05-23T11:41:38;8.05;;;3.70;;
61291;SDS011;47165;42.664;23.368;2023-05-23T11:44:10;7.10;;;3.88;;
61291;SDS011;47165;42.664;23.368;2023-05-23T11:46:37;7.65;;;4.60;;
61291;SDS011;47165;42.664;23.368;2023-05-23T11:49:08;8.88;;;3.20;;
61291;SDS011;47165;42.664;23.368;2023-05-23T11:51:35;4.93;;;2.72;;
61291;SDS011;47165;42.664;23.368;2023-05-23T11:54:01;4.25;;;2.63;;
61291;SDS011;47165;42.664;23.368;2023-05-23T11:56:26;6.80;;;3.63;;
61291;SDS011;47165;42.664;23.368;2023-05-23T11:58:53;6.57;;;4.20;;
61291;SDS011;47165;42.664;23.368;2023-05-23T12:01:27;7.25;;;3.58;;
61291;SDS011;47165;42.664;23.368;2023-05-23T12:06:21;4.28;;;3.03;;
61291;SDS011;47165;42.664;23.368;2023-05-23T12:08:48;6.20;;;2.83;;
61291;SDS011;47165;42.664;23.368;2023-05-23T12:11:15;7.85;;;3.28;;
61291;SDS011;47165;42.664;23.368;2023-05-23T12:13:41;6.60;;;3.13;;
61291;SDS011;47165;42.664;23.368;2023-05-23T12:16:07;8.18;;;2.50;;
61291;SDS011;47165;42.664;23.368;2023-05-23T12:18:32;4.13;;;2.55;;
61291;SDS011;47165;42.664;23.368;2023-05-23T12:21:00;6.95;;;3.50;;
61291;SDS011;47165;42.664;23.368;2023-05-23T12:23:27;5.05;;;3.88;;
61291;SDS011;47165;42.664;23.368;2023-05-23T12:25:54;8.18;;;3.08;;
61291;SDS011;47165;42.664;23.368;2023-05-23T12:28:21;4.85;;;2.78;;
61291;SDS011;47165;42.664;23.368;2023-05-23T12:31:17;4.53;;;2.63;;
61291;SDS011;47165;42.664;23.368;2023-05-23T12:33:45;4.43;;;2.83;;
61291;SDS011;47165;42.664;23.368;2023-05-23T12:36:12;4.65;;;2.85;;
61291;SDS011;47165;42.664;23.368;2023-05-23T12:38:38;4.35;;;2.13;;
61291;SDS011;47165;42.664;23.368;2023-05-23T12:41:09;6.35;;;2.55;;
61291;SDS011;47165;42.664;23.368;2023-05-23T12:43:39;5.05;;;2.42;;
61291;SDS011;47165;42.664;23.368;2023-05-23T12:46:05;2.90;;;2.00;;
61291;SDS011;47165;42.664;23.368;2023-05-23T12:48:32;4.57;;;1.90;;
61291;SDS011;47165;42.664;23.368;2023-05-23T12:50:57;4.70;;;2.55;;
61291;SDS011;47165;42.664;23.368;2023-05-23T12:53:24;4.57;;;2.10;;
61291;SDS011;47165;42.664;23.368;2023-05-23T12:55:50;3.70;;;2.08;;
61291;SDS011;47165;42.664;23.368;2023-05-23T12:58:16;2.85;;;2.25;;
61291;SDS011;47165;42.664;23.368;2023-05-23T13:00:42;4.13;;;2.13;;
61291;SDS011;47165;42.664;23.368;2023-05-23T13:03:07;5.97;;;2.65;;
61291;SDS011;47165;42.664;23.368;2023-05-23T13:05:33;4.05;;;2.40;;
61291;SDS011;47165;42.664;23.368;2023-05-23T13:07:59;3.20;;;1.90;;
61291;SDS011;47165;42.664;23.368;2023-05-23T13:10:24;3.55;;;1.67;;
61291;SDS011;47165;42.664;23.368;2023-05-23T13:12:49;3.38;;;1.90;;
61291;SDS011;47165;42.664;23.368;2023-05-23T13:15:15;4.05;;;2.45;;
61291;SDS011;47165;42.664;23.368;2023-05-23T13:17:41;5.75;;;1.88;;
61291;SDS011;47165;42.664;23.368;2023-05-23T13:20:07;3.97;;;2.80;;
61291;SDS011;47165;42.664;23.368;2023-05-23T13:22:33;3.38;;;2.03;;
61291;SDS011;47165;42.664;23.368;2023-05-23T13:24:59;3.42;;;2.33;;
61291;SDS011;47165;42.664;23.368;2023-05-23T13:27:24;2.65;;;1.95;;
61291;SDS011;47165;42.664;23.368;2023-05-23T13:29:50;2.60;;;2.05;;
61291;SDS011;47165;42.664;23.368;2023-05-23T13:32:15;3.00;;;1.95;;
61291;SDS011;47165;42.664;23.368;2023-05-23T13:34:41;6.80;;;2.15;;
61291;SDS011;47165;42.664;23.368;2023-05-23T13:37:06;4.25;;;2.03;;
61291;SDS011;47165;42.664;23.368;2023-05-23T13:39:31;2.85;;;1.70;;
61291;SDS011;47165;42.664;23.368;2023-05-23T13:41:57;4.30;;;2.20;;
61291;SDS011;47165;42.664;23.368;2023-05-23T13:44:22;2.88;;;1.90;;
61291;SDS011;47165;42.664;23.368;2023-05-23T13:46:48;2.83;;;1.85;;
61291;SDS011;47165;42.664;23.368;2023-05-23T13:49:13;3.45;;;2.08;;
61291;SDS011;47165;42.664;23.368;2023-05-23T13:51:38;2.80;;;1.70;;
61291;SDS011;47165;42.664;23.368;2023-05-23T13:54:05;2.83;;;1.92;;
61291;SDS011;47165;42.664;23.368;2023-05-23T13:56:31;5.03;;;2.30;;
61291;SDS011;47165;42.664;23.368;2023-05-23T13:58:57;4.38;;;1.90;;
61291;SDS011;47165;42.664;23.368;2023-05-23T14:01:23;2.72;;;1.88;;
61291;SDS011;47165;42.664;23.368;2023-05-23T14:03:49;2.75;;;1.98;;
61291;SDS011;47165;42.664;23.368;2023-05-23T14:06:14;10.15;;;3.08;;
61291;SDS011;47165;42.664;23.368;2023-05-23T14:08:40;2.90;;;1.98;;
61291;SDS011;47165;42.664;23.368;2023-05-23T14:11:05;2.42;;;1.98;;
61291;SDS011;47165;42.664;23.368;2023-05-23T14:13:30;3.47;;;2.13;;
61291;SDS011;47165;42.664;23.368;2023-05-23T14:15:56;6.10;;;2.10;;
61291;SDS011;47165;42.664;23.368;2023-05-23T14:18:22;3.83;;;1.70;;
61291;SDS011;47165;42.664;23.368;2023-05-23T14:20:47;4.40;;;2.28;;
61291;SDS011;47165;42.664;23.368;2023-05-23T14:23:13;6.13;;;1.92;;
61291;SDS011;47165;42.664;23.368;2023-05-23T14:25:38;5.13;;;2.15;;
61291;SDS011;47165;42.664;23.368;2023-05-23T14:28:03;12.38;;;2.88;;
61291;SDS011;47165;42.664;23.368;2023-05-23T14:30:29;5.60;;;2.30;;
61291;SDS011;47165;42.664;23.368;2023-05-23T14:32:54;5.60;;;2.80;;
61291;SDS011;47165;42.664;23.368;2023-05-23T14:35:20;7.80;;;3.25;;
61291;SDS011;47165;42.664;23.368;2023-05-23T14:37:49;6.05;;;2.67;;
61291;SDS011;47165;42.664;23.368;2023-05-23T14:40:15;4.80;;;2.95;;
61291;SDS011;47165;42.664;23.368;2023-05-23T14:42:40;4.72;;;2.13;;
61291;SDS011;47165;42.664;23.368;2023-05-23T14:45:06;3.08;;;1.85;;
61291;SDS011;47165;42.664;23.368;2023-05-23T14:47:32;3.10;;;2.17;;
61291;SDS011;47165;42.664;23.368;2023-05-23T14:49:57;3.95;;;2.05;;
61291;SDS011;47165;42.664;23.368;2023-05-23T14:52:23;3.15;;;1.73;;
61291;SDS011;47165;42.664;23.368;2023-05-23T14:54:48;6.35;;;2.78;;